This is the latest recevied weather packets stored in our database for station/object KY0TEQ-13. If no packets are shown the sender has not sent any weather packets the latest 10 day(s).
| Time | Temp. | Humidity | Pressure | Rain* | Wind** | Luminosity | Snow |
|---|---|---|---|---|---|---|---|
| 1788364455 | 20° C | 38% | 1311.2 hPa | 0 mm | - | 447 W/m² | - |
| 1788364154 | 20° C | 38% | 1311.3 hPa | 0 mm | - | 433 W/m² | - |
| 1788363850 | 18.89° C | 40% | 1311.1 hPa | 0 mm | - | 418 W/m² | - |
| 1788363549 | 18.89° C | 43% | 1311.2 hPa | 0 mm | - | 402 W/m² | - |
| 1788363252 | 18.33° C | 44% | 1311.3 hPa | 0 mm | - | 387 W/m² | - |
| 1788362944 | 18.33° C | 43% | 1311.3 hPa | 0 mm | - | 370 W/m² | - |
| 1788362640 | 17.78° C | 47% | 1311.3 hPa | 0 mm | - | 339 W/m² | - |
| 1788362335 | 16.67° C | 50% | 1311.4 hPa | 0 mm | - | 270 W/m² | - |
| 1788362025 | 16.67° C | 50% | 1311.3 hPa | 0 mm | - | 314 W/m² | - |
| 1788361725 | 16.67° C | 50% | 1311.4 hPa | 0 mm | - | 302 W/m² | - |
| 1788361421 | 16.67° C | 50% | 1311.3 hPa | 0 mm | - | 278 W/m² | - |
| 1788361120 | 16.67° C | 47% | 1311.4 hPa | 0 mm | - | 267 W/m² | - |
| 1788360816 | 16.67° C | 45% | 1311.2 hPa | 0 mm | - | 251 W/m² | - |
| 1788360511 | 16.11° C | 46% | 1311.2 hPa | 0 mm | - | 233 W/m² | - |
| 1788360207 | 16.11° C | 48% | 1311.3 hPa | 0 mm | - | 215 W/m² | - |
| 1788359901 | 16.11° C | 46% | 1311.1 hPa | 0 mm | - | 199 W/m² | - |
| 1788359596 | 16.11° C | 46% | 1311.2 hPa | 0 mm | - | 183 W/m² | - |
| 1788359292 | 15.56° C | 46% | 1311.2 hPa | 0 mm | - | 162 W/m² | - |
| 1788358988 | 16.11° C | 46% | 1311 hPa | 0 mm | - | 151 W/m² | - |
| 1788358683 | 16.11° C | 46% | 1311.3 hPa | 0 mm | - | 135 W/m² | - |
| 1788358378 | 15.56° C | 47% | 1311.2 hPa | 0 mm | - | 118 W/m² | - |
| 1788358078 | 15° C | 49% | 1311.2 hPa | 0 mm | - | 103 W/m² | - |
| 1788357773 | 13.89° C | 51% | 1311.1 hPa | 0 mm | - | 89 W/m² | - |
| 1788357472 | 13.89° C | 51% | 1311.1 hPa | 0 mm | - | 79 W/m² | - |
| 1788357168 | 13.89° C | 52% | 1311.2 hPa | 0 mm | - | 70 W/m² | - |
* Rain latest hour (hover to see other rain measurements)
** Current wind speed in m/s (hover to see current wind gust speed)